Time;durP1;ratioP1;P1;durP2;ratioP2;P2;SDS_P1;SDS_P2;PMS_P1;PMS_P2;Temp;Humidity;BMP_temperature;BMP_pressure;BME280_temperature;BME280_humidity;BME280_pressure;Samples;Min_cycle;Max_cycle;Signal;HPM_P1;HPM_P2
2022/06/23 00:01:57;;;;;;;15.95;8.68;;;;;;;;;;5020973;28;20037;-69
2022/06/23 00:04:35;;;;;;;18.20;8.30;;;;;;;;;;5018910;28;20471;-69
2022/06/23 00:07:07;;;;;;;19.48;7.82;;;;;;;;;;5020887;28;20080;-68
2022/06/23 00:09:35;;;;;;;15.63;7.35;;;;;;;;;;5020702;28;20068;-69
2022/06/23 00:12:15;;;;;;;18.17;7.70;;;;;;;;;;5021093;28;20047;-69
2022/06/23 00:14:40;;;;;;;18.90;8.70;;;;;;;;;;5020968;28;20053;-69
2022/06/23 00:17:30;;;;;;;15.38;8.48;;;;;;;;;;5020241;28;20036;-69
2022/06/23 00:20:03;;;;;;;17.40;8.60;;;;;;;;;;5020125;28;20036;-69
2022/06/23 00:22:31;;;;;;;21.50;9.93;;;;;;;;;;5021105;28;20048;-69
2022/06/23 00:24:59;;;;;;;19.05;10.00;;;;;;;;;;5020574;28;20037;-69
2022/06/23 00:27:31;;;;;;;21.00;9.40;;;;;;;;;;5018659;28;20041;-70
2022/06/23 00:30:18;;;;;;;16.02;8.98;;;;;;;;;;5020075;28;20506;-69
2022/06/23 00:32:44;;;;;;;14.00;8.88;;;;;;;;;;5020880;28;20397;-69
2022/06/23 00:35:16;;;;;;;19.20;8.57;;;;;;;;;;5019662;28;20625;-69
2022/06/23 00:37:47;;;;;;;;;;;;;;;;;;5020588;28;20037;-70
2022/06/23 00:40:14;;;;;;;16.63;7.97;;;;;;;;;;5020071;28;19917;-69
2022/06/23 00:42:49;;;;;;;14.25;8.30;;;;;;;;;;5020802;28;20775;-69
2022/06/23 00:45:39;;;;;;;15.57;9.73;;;;;;;;;;5020600;28;20037;-69
2022/06/23 00:48:26;;;;;;;16.10;8.13;;;;;;;;;;5019977;28;20079;-68
2022/06/23 00:51:13;;;;;;;15.15;8.02;;;;;;;;;;5019432;28;20417;-69
2022/06/23 00:53:55;;;;;;;18.00;8.18;;;;;;;;;;5020644;28;20034;-69
2022/06/23 00:56:26;;;;;;;19.13;7.93;;;;;;;;;;5020887;28;20065;-68
2022/06/23 00:58:59;;;;;;;13.50;7.85;;;;;;;;;;5023517;28;20077;-67
2022/06/23 01:01:50;;;;;;;20.48;7.70;;;;;;;;;;5023269;28;20030;-67
2022/06/23 01:04:41;;;;;;;16.23;7.30;;;;;;;;;;5023605;28;20041;-67
2022/06/23 01:07:43;;;;;;;14.75;7.60;;;;;;;;;;5023064;28;20044;-68
2022/06/23 01:10:27;;;;;;;21.10;7.05;;;;;;;;;;5023205;28;20045;-67
2022/06/23 01:13:12;;;;;;;13.85;6.85;;;;;;;;;;5023890;28;20038;-67
2022/06/23 01:15:49;;;;;;;15.65;6.32;;;;;;;;;;5022999;28;20029;-68
2022/06/23 01:18:26;;;;;;;13.82;7.05;;;;;;;;;;5023880;28;20163;-68
2022/06/23 01:20:54;;;;;;;16.98;6.60;;;;;;;;;;5024389;28;20112;-68
2022/06/23 01:23:58;;;;;;;22.27;7.43;;;;;;;;;;5030420;28;20112;-67
2022/06/23 01:26:38;;;;;;;15.70;7.43;;;;;;;;;;5023756;28;20124;-67
2022/06/23 01:29:17;;;;;;;19.45;8.40;;;;;;;;;;5024249;28;20486;-67
2022/06/23 01:31:54;;;;;;;21.60;7.18;;;;;;;;;;5024099;28;20053;-69
2022/06/23 01:34:41;;;;;;;16.63;7.93;;;;;;;;;;5022702;28;20038;-70
2022/06/23 01:37:22;;;;;;;20.48;8.40;;;;;;;;;;5023670;28;20167;-69
2022/06/23 01:39:51;;;;;;;13.23;7.28;;;;;;;;;;5023255;28;20037;-69
2022/06/23 01:42:25;;;;;;;17.92;8.38;;;;;;;;;;5023790;28;20037;-69
2022/06/23 01:45:12;;;;;;;16.45;7.93;;;;;;;;;;5022969;28;20042;-69
2022/06/23 01:47:49;;;;;;;12.00;6.43;;;;;;;;;;5024127;28;20037;-68
2022/06/23 01:50:15;;;;;;;13.38;7.30;;;;;;;;;;5023473;28;20068;-68
2022/06/23 01:52:42;;;;;;;13.27;6.63;;;;;;;;;;5024808;28;20079;-67
2022/06/23 01:55:32;;;;;;;19.95;6.72;;;;;;;;;;5023145;28;20419;-68
2022/06/23 01:58:04;;;;;;;13.68;7.60;;;;;;;;;;5023814;28;20095;-68
2022/06/23 02:00:30;;;;;;;;;;;;;;;;;;5018686;28;20032;-67
2022/06/23 02:03:31;;;;;;;16.83;7.22;;;;;;;;;;5023632;28;19916;-69
2022/06/23 02:06:11;;;;;;;11.88;7.47;;;;;;;;;;5023049;28;20072;-70
2022/06/23 02:08:46;;;;;;;15.45;8.00;;;;;;;;;;5022345;28;20041;-68
2022/06/23 02:11:21;;;;;;;14.52;7.50;;;;;;;;;;5023604;28;20871;-67
2022/06/23 02:13:49;;;;;;;15.27;7.35;;;;;;;;;;5024034;28;20470;-71
2022/06/23 02:16:42;;;;;;;19.70;8.32;;;;;;;;;;5023028;28;20036;-69
2022/06/23 02:19:29;;;;;;;18.48;8.45;;;;;;;;;;5023559;28;20076;-66
2022/06/23 02:22:14;;;;;;;14.50;7.47;;;;;;;;;;5023118;28;20120;-68
2022/06/23 02:24:48;;;;;;;17.65;7.25;;;;;;;;;;5023232;28;20033;-70
2022/06/23 02:27:32;;;;;;;16.77;7.68;;;;;;;;;;5022550;28;20029;-69
2022/06/23 02:30:18;;;;;;;17.17;6.95;;;;;;;;;;5022485;28;20474;-67
2022/06/23 02:32:57;;;;;;;22.77;7.50;;;;;;;;;;5022855;28;20029;-72
2022/06/23 02:35:47;;;;;;;16.85;8.38;;;;;;;;;;5024243;28;20041;-70
2022/06/23 02:38:32;;;;;;;17.77;8.30;;;;;;;;;;5020309;28;20069;-69
2022/06/23 02:41:18;;;;;;;13.63;7.35;;;;;;;;;;5022398;28;20069;-68
2022/06/23 02:44:02;;;;;;;18.45;7.95;;;;;;;;;;5021369;28;20041;-68
2022/06/23 02:47:06;;;;;;;20.02;9.25;;;;;;;;;;5022657;28;20045;-69
2022/06/23 02:49:55;;;;;;;16.92;9.13;;;;;;;;;;5020944;28;20045;-69
2022/06/23 02:52:32;;;;;;;20.92;9.25;;;;;;;;;;5022281;28;20099;-68
2022/06/23 02:55:20;;;;;;;16.15;8.88;;;;;;;;;;5022374;28;20536;-69
2022/06/23 02:57:51;;;;;;;14.98;8.40;;;;;;;;;;5022399;28;21023;-68
2022/06/23 03:00:23;;;;;;;15.73;7.90;;;;;;;;;;5020994;28;20041;-68
2022/06/23 03:03:04;;;;;;;17.05;8.45;;;;;;;;;;5020551;28;20152;-68
2022/06/23 03:05:38;;;;;;;22.30;8.48;;;;;;;;;;5017206;28;20128;-69
2022/06/23 03:08:16;;;;;;;19.80;9.25;;;;;;;;;;5021779;28;20038;-70
2022/06/23 03:10:49;;;;;;;22.38;8.98;;;;;;;;;;5021656;28;20044;-69
2022/06/23 03:13:27;;;;;;;12.95;7.70;;;;;;;;;;5021231;28;20037;-69
2022/06/23 03:15:59;;;;;;;19.67;7.95;;;;;;;;;;5021706;28;20091;-70
2022/06/23 03:18:55;;;;;;;19.30;8.77;;;;;;;;;;5021924;28;20069;-70
2022/06/23 03:21:29;;;;;;;18.67;7.20;;;;;;;;;;5002666;28;20063;-70
2022/06/23 03:24:12;;;;;;;14.30;7.60;;;;;;;;;;5021010;28;20037;-69
2022/06/23 03:26:49;;;;;;;18.55;6.70;;;;;;;;;;5021306;28;20044;-69
2022/06/23 03:29:37;;;;;;;18.67;7.93;;;;;;;;;;5021908;28;20095;-70
2022/06/23 03:32:31;;;;;;;19.38;7.20;;;;;;;;;;5022026;28;20038;-71
2022/06/23 03:35:21;;;;;;;18.48;6.88;;;;;;;;;;5020694;28;20033;-69
2022/06/23 03:38:05;;;;;;;16.60;6.97;;;;;;;;;;5021529;28;21036;-68
2022/06/23 03:44:04;;;;;;;12.43;6.28;;;;;;;;;;5021220;28;20045;-70
2022/06/23 03:46:36;;;;;;;12.75;5.95;;;;;;;;;;5020218;28;20045;-70
2022/06/23 03:49:46;;;;;;;19.65;6.20;;;;;;;;;;5018024;28;20037;-70
2022/06/23 03:52:37;;;;;;;15.43;6.22;;;;;;;;;;5020355;28;20030;-70
2022/06/23 03:55:27;;;;;;;18.35;6.70;;;;;;;;;;5016170;28;20052;-70
2022/06/23 03:58:09;;;;;;;14.75;5.90;;;;;;;;;;5020758;28;20037;-69
2022/06/23 04:00:37;;;;;;;14.63;5.95;;;;;;;;;;5017225;28;20044;-69
2022/06/23 04:03:21;;;;;;;19.88;5.32;;;;;;;;;;5021179;28;20057;-72
2022/06/23 04:05:56;;;;;;;13.25;5.32;;;;;;;;;;5021289;28;20029;-69
2022/06/23 04:08:33;;;;;;;15.73;5.50;;;;;;;;;;5020322;28;20131;-69
2022/06/23 04:11:43;;;;;;;14.30;5.10;;;;;;;;;;5020472;28;20052;-70
2022/06/23 04:13:53;;;;;;;15.73;5.13;;;;;;;;;;5018992;28;20132;-69
2022/06/23 04:16:24;;;;;;;14.88;4.80;;;;;;;;;;5020618;28;20026;-71
2022/06/23 04:18:50;;;;;;;14.05;4.82;;;;;;;;;;5018653;28;20041;-69
2022/06/23 04:21:23;;;;;;;14.15;4.70;;;;;;;;;;5020810;28;20084;-70
2022/06/23 04:23:52;;;;;;;17.30;5.80;;;;;;;;;;5003364;28;20106;-70
2022/06/23 04:26:23;;;;;;;12.18;4.30;;;;;;;;;;5021533;28;20047;-69
2022/06/23 04:29:12;;;;;;;15.15;4.65;;;;;;;;;;5021753;28;20571;-69
2022/06/23 04:32:07;;;;;;;7.28;3.63;;;;;;;;;;5015667;28;20052;-68
2022/06/23 04:34:41;;;;;;;16.75;3.97;;;;;;;;;;5015372;28;20060;-70
2022/06/23 04:37:22;;;;;;;16.08;3.97;;;;;;;;;;5020148;28;20060;-68
2022/06/23 04:40:00;;;;;;;12.02;4.05;;;;;;;;;;5018368;28;20041;-70
2022/06/23 04:42:26;;;;;;;11.25;3.90;;;;;;;;;;5020741;28;21010;-68
2022/06/23 04:44:56;;;;;;;8.43;3.08;;;;;;;;;;5020322;28;20253;-68
2022/06/23 04:47:31;;;;;;;8.68;3.58;;;;;;;;;;5019969;28;20040;-69
2022/06/23 04:50:10;;;;;;;10.10;3.35;;;;;;;;;;5019183;28;20405;-69
2022/06/23 04:52:41;;;;;;;9.02;3.10;;;;;;;;;;5019959;28;20498;-68
2022/06/23 04:55:13;;;;;;;9.63;3.38;;;;;;;;;;5019206;28;20627;-68
2022/06/23 04:57:38;;;;;;;10.98;4.03;;;;;;;;;;5018509;28;20486;-70
2022/06/23 05:00:04;;;;;;;8.75;3.03;;;;;;;;;;5014017;28;20037;-68
2022/06/23 05:02:31;;;;;;;10.55;3.72;;;;;;;;;;5017809;28;20037;-68
2022/06/23 05:05:14;;;;;;;7.65;2.88;;;;;;;;;;5018561;28;20037;-69
2022/06/23 05:07:55;;;;;;;4.55;2.65;;;;;;;;;;5019476;28;20490;-67
2022/06/23 05:10:31;;;;;;;12.95;3.15;;;;;;;;;;5020949;28;20045;-71
2022/06/23 05:13:12;;;;;;;10.07;3.58;;;;;;;;;;5018880;28;20071;-70
2022/06/23 05:15:48;;;;;;;8.32;3.35;;;;;;;;;;5019947;28;20026;-69
2022/06/23 05:18:33;;;;;;;6.50;2.65;;;;;;;;;;5019059;28;20108;-70
2022/06/23 05:21:07;;;;;;;15.50;3.78;;;;;;;;;;5015851;28;20136;-70
2022/06/23 05:23:45;;;;;;;12.52;2.78;;;;;;;;;;5017613;28;20064;-68
2022/06/23 05:26:23;;;;;;;5.72;2.35;;;;;;;;;;5018132;28;20080;-70
2022/06/23 05:28:54;;;;;;;9.30;2.65;;;;;;;;;;5017612;28;20132;-69
2022/06/23 05:31:24;;;;;;;9.05;3.15;;;;;;;;;;5018575;28;20120;-68
2022/06/23 05:33:53;;;;;;;9.77;3.00;;;;;;;;;;5019811;28;20053;-69
2022/06/23 05:36:27;;;;;;;10.02;2.72;;;;;;;;;;5018252;28;20128;-68
2022/06/23 05:38:58;;;;;;;9.02;3.05;;;;;;;;;;5020594;28;20596;-70
2022/06/23 05:41:34;;;;;;;10.40;3.08;;;;;;;;;;5020460;28;20245;-70
2022/06/23 05:44:04;;;;;;;6.82;3.03;;;;;;;;;;4995534;28;20489;-71
2022/06/23 05:46:32;;;;;;;14.20;2.92;;;;;;;;;;5025909;28;20037;-67
2022/06/23 05:49:22;;;;;;;12.02;3.15;;;;;;;;;;5025305;28;20067;-67
2022/06/23 05:51:54;;;;;;;8.95;3.03;;;;;;;;;;5026124;28;20041;-69
2022/06/23 05:54:28;;;;;;;10.40;3.35;;;;;;;;;;5023921;28;20037;-67
2022/06/23 05:57:13;;;;;;;11.05;3.03;;;;;;;;;;5023213;28;20049;-67
2022/06/23 06:00:07;;;;;;;7.97;2.97;;;;;;;;;;5023536;28;20041;-68
2022/06/23 06:02:36;;;;;;;12.20;3.05;;;;;;;;;;5023545;28;20065;-69
2022/06/23 06:05:03;;;;;;;9.50;3.50;;;;;;;;;;5023489;28;20045;-67
2022/06/23 06:07:39;;;;;;;9.15;2.85;;;;;;;;;;5023254;28;20029;-68
2022/06/23 06:10:12;;;;;;;7.43;2.72;;;;;;;;;;5021833;28;20493;-68
2022/06/23 06:12:41;;;;;;;10.35;3.20;;;;;;;;;;5023856;28;20083;-69
2022/06/23 06:15:21;;;;;;;11.55;3.10;;;;;;;;;;5023605;28;20497;-69
2022/06/23 06:17:49;;;;;;;9.43;2.60;;;;;;;;;;5023491;28;20033;-73
2022/06/23 06:20:15;;;;;;;11.73;3.13;;;;;;;;;;5022399;28;20748;-69
2022/06/23 06:22:48;;;;;;;8.02;2.30;;;;;;;;;;5022225;28;20910;-74
2022/06/23 06:25:32;;;;;;;6.28;2.78;;;;;;;;;;5023100;28;20042;-69
2022/06/23 06:28:16;;;;;;;12.95;3.22;;;;;;;;;;5020468;28;20037;-71
2022/06/23 06:30:49;;;;;;;8.85;2.90;;;;;;;;;;5021614;28;20029;-69
2022/06/23 06:33:37;;;;;;;12.73;3.33;;;;;;;;;;5023935;28;20470;-69
2022/06/23 06:36:25;;;;;;;12.55;3.00;;;;;;;;;;5023766;28;20037;-69
2022/06/23 06:38:51;;;;;;;9.10;2.97;;;;;;;;;;5023460;28;20033;-69
2022/06/23 06:41:16;;;;;;;8.05;2.75;;;;;;;;;;5022217;28;20041;-69
2022/06/23 06:43:42;;;;;;;12.55;3.30;;;;;;;;;;5023856;28;20075;-69
2022/06/23 06:46:08;;;;;;;15.63;3.72;;;;;;;;;;5023815;28;20044;-69
2022/06/23 06:48:36;;;;;;;12.68;3.30;;;;;;;;;;5024086;28;20091;-70
2022/06/23 06:51:06;;;;;;;12.07;2.92;;;;;;;;;;5022343;28;20041;-68
2022/06/23 06:53:37;;;;;;;11.60;3.13;;;;;;;;;;5023751;28;20077;-70
2022/06/23 06:56:15;;;;;;;16.35;3.83;;;;;;;;;;5022927;28;20036;-73
2022/06/23 06:59:07;;;;;;;12.10;2.97;;;;;;;;;;5022740;28;20120;-70
2022/06/23 07:01:36;;;;;;;16.63;3.65;;;;;;;;;;5022636;28;20464;-71
2022/06/23 07:04:02;;;;;;;13.60;2.90;;;;;;;;;;5021380;28;20044;-69
2022/06/23 07:06:44;;;;;;;16.08;3.67;;;;;;;;;;5021599;28;20045;-69
2022/06/23 07:09:28;;;;;;;15.07;3.35;;;;;;;;;;5022345;28;20033;-70
2022/06/23 07:11:58;;;;;;;12.30;3.10;;;;;;;;;;5021991;28;20803;-70
2022/06/23 07:14:32;;;;;;;14.05;3.88;;;;;;;;;;5021657;28;20041;-71
2022/06/23 07:17:13;;;;;;;14.13;2.83;;;;;;;;;;5022519;28;20048;-69
2022/06/23 07:19:44;;;;;;;18.08;3.92;;;;;;;;;;5022525;28;20156;-74
2022/06/23 07:22:16;;;;;;;10.75;3.35;;;;;;;;;;5021196;28;20033;-74
2022/06/23 07:24:53;;;;;;;12.30;3.30;;;;;;;;;;5020023;28;20548;-74
2022/06/23 07:27:28;;;;;;;15.68;3.92;;;;;;;;;;5021100;28;20037;-69
2022/06/23 07:29:59;;;;;;;15.95;3.60;;;;;;;;;;5021598;28;20775;-69
2022/06/23 07:32:52;;;;;;;10.18;3.40;;;;;;;;;;5024522;28;20103;-69
2022/06/23 07:35:34;;;;;;;12.15;3.90;;;;;;;;;;5024329;28;20065;-73
2022/06/23 07:38:16;;;;;;;12.23;3.53;;;;;;;;;;5025517;28;20033;-69
2022/06/23 07:41:00;;;;;;;12.52;3.10;;;;;;;;;;5025158;28;20419;-68
2022/06/23 07:43:36;;;;;;;17.25;3.47;;;;;;;;;;5025223;28;20095;-70
2022/06/23 07:46:02;;;;;;;9.32;3.50;;;;;;;;;;5025635;28;20056;-69
2022/06/23 07:48:31;;;;;;;11.63;3.35;;;;;;;;;;5025157;28;20072;-68
2022/06/23 07:50:57;;;;;;;13.70;3.92;;;;;;;;;;5024173;28;20486;-71
2022/06/23 07:53:28;;;;;;;12.75;3.45;;;;;;;;;;5025003;28;20058;-69
2022/06/23 07:55:54;;;;;;;11.85;3.90;;;;;;;;;;5025124;28;20088;-69
2022/06/23 07:58:27;;;;;;;11.77;3.33;;;;;;;;;;5022488;28;20038;-68
2022/06/23 08:01:25;;;;;;;10.40;3.05;;;;;;;;;;5021822;28;20036;-69
2022/06/23 08:03:57;;;;;;;16.25;3.25;;;;;;;;;;5022917;28;20378;-69
2022/06/23 08:06:24;;;;;;;10.43;3.35;;;;;;;;;;5018898;28;20478;-70
2022/06/23 08:08:54;;;;;;;12.15;3.22;;;;;;;;;;5021627;28;20398;-69
2022/06/23 08:14:13;;;;;;;12.93;3.60;;;;;;;;;;5022201;28;20132;-68
2022/06/23 08:16:51;;;;;;;10.75;2.92;;;;;;;;;;5022750;28;20044;-68
2022/06/23 08:19:29;;;;;;;9.00;2.92;;;;;;;;;;5021486;28;20103;-69
2022/06/23 08:22:11;;;;;;;8.15;3.00;;;;;;;;;;5021362;28;20401;-71
2022/06/23 08:24:38;;;;;;;10.60;2.92;;;;;;;;;;5021608;28;20162;-68
2022/06/23 08:27:09;;;;;;;14.20;3.10;;;;;;;;;;5021344;28;20081;-72
2022/06/23 08:29:42;;;;;;;10.00;3.15;;;;;;;;;;5021325;28;20049;-73
2022/06/23 08:32:08;;;;;;;9.68;2.90;;;;;;;;;;5018564;28;20041;-68
2022/06/23 08:34:37;;;;;;;11.40;2.92;;;;;;;;;;5021268;28;20044;-69
2022/06/23 08:37:09;;;;;;;10.75;2.80;;;;;;;;;;5020776;28;20775;-71
2022/06/23 08:39:47;;;;;;;8.88;3.00;;;;;;;;;;5021241;28;20029;-71
2022/06/23 08:42:38;;;;;;;8.95;2.70;;;;;;;;;;5010357;28;20033;-69
2022/06/23 08:45:27;;;;;;;7.55;2.53;;;;;;;;;;5023769;28;20429;-70
2022/06/23 08:48:19;;;;;;;11.70;2.95;;;;;;;;;;5023403;28;20928;-69
2022/06/23 08:50:58;;;;;;;7.95;2.58;;;;;;;;;;5023983;28;20057;-72
2022/06/23 08:53:45;;;;;;;8.45;2.47;;;;;;;;;;5023191;28;20514;-69
2022/06/23 08:56:26;;;;;;;9.57;2.70;;;;;;;;;;5021135;28;20043;-69
2022/06/23 08:58:59;;;;;;;6.35;2.25;;;;;;;;;;5022265;28;20402;-71
2022/06/23 09:01:36;;;;;;;8.68;2.28;;;;;;;;;;5022134;28;20037;-68
2022/06/23 09:04:14;;;;;;;8.52;2.35;;;;;;;;;;5021145;28;20052;-68
2022/06/23 09:06:47;;;;;;;10.18;2.25;;;;;;;;;;5021964;28;20136;-69
2022/06/23 09:09:19;;;;;;;11.65;2.75;;;;;;;;;;5022190;28;20039;-68
2022/06/23 09:12:01;;;;;;;7.35;2.13;;;;;;;;;;5023192;28;20041;-68
2022/06/23 09:14:44;;;;;;;8.82;2.03;;;;;;;;;;5022364;28;20037;-69
2022/06/23 09:17:28;;;;;;;10.68;2.30;;;;;;;;;;5023289;28;20033;-72
2022/06/23 09:19:57;;;;;;;10.00;2.50;;;;;;;;;;5026044;28;20078;-70
2022/06/23 09:22:54;;;;;;;10.23;2.70;;;;;;;;;;5025629;28;20038;-68
2022/06/23 09:25:43;;;;;;;8.45;2.47;;;;;;;;;;5009544;28;20077;-68
2022/06/23 09:28:12;;;;;;;7.88;2.08;;;;;;;;;;5025842;28;20034;-70
2022/06/23 09:30:57;;;;;;;8.65;2.45;;;;;;;;;;5025582;28;20071;-71
2022/06/23 09:33:42;;;;;;;13.55;2.63;;;;;;;;;;5027254;28;20040;-72
2022/06/23 09:36:15;;;;;;;11.98;2.40;;;;;;;;;;5028456;28;20048;-69
2022/06/23 09:38:52;;;;;;;9.85;2.65;;;;;;;;;;5026517;28;20033;-72
2022/06/23 09:41:32;;;;;;;8.82;2.38;;;;;;;;;;5026529;28;20044;-70
2022/06/23 09:44:23;;;;;;;6.90;2.33;;;;;;;;;;5026280;28;20056;-69
2022/06/23 09:47:02;;;;;;;11.30;2.80;;;;;;;;;;5028073;28;20041;-68
2022/06/23 09:49:46;;;;;;;11.38;2.38;;;;;;;;;;5027199;28;20099;-68
2022/06/23 09:52:36;;;;;;;8.27;2.33;;;;;;;;;;5024819;28;20037;-72
2022/06/23 09:55:23;;;;;;;8.00;2.63;;;;;;;;;;5024601;28;20041;-69
2022/06/23 09:57:57;;;;;;;7.75;2.60;;;;;;;;;;5026429;28;20045;-68
2022/06/23 10:00:38;;;;;;;6.85;2.08;;;;;;;;;;5025435;28;20072;-67
2022/06/23 10:03:22;;;;;;;;;;;;;;;;;;5025578;28;20509;-68
2022/06/23 10:06:21;;;;;;;7.40;2.30;;;;;;;;;;5026768;28;19921;-69
2022/06/23 10:09:08;;;;;;;13.63;2.42;;;;;;;;;;5025925;28;20116;-67
2022/06/23 10:11:47;;;;;;;8.05;2.40;;;;;;;;;;5025771;28;20037;-70
2022/06/23 10:14:23;;;;;;;14.40;3.08;;;;;;;;;;5023497;28;20489;-69
2022/06/23 10:17:10;;;;;;;9.77;2.85;;;;;;;;;;5024440;28;20061;-69
2022/06/23 10:19:44;;;;;;;8.43;2.40;;;;;;;;;;5024832;28;20994;-73
2022/06/23 10:22:37;;;;;;;9.23;2.10;;;;;;;;;;5024854;28;20038;-72
2022/06/23 10:25:38;;;;;;;11.13;2.85;;;;;;;;;;5023112;28;20397;-69
2022/06/23 10:28:22;;;;;;;11.43;2.33;;;;;;;;;;5001329;28;20060;-71
2022/06/23 10:31:25;;;;;;;8.00;2.47;;;;;;;;;;5024293;28;20091;-68
2022/06/23 10:34:03;;;;;;;10.25;2.63;;;;;;;;;;5026348;28;20040;-68
2022/06/23 10:36:43;;;;;;;8.20;2.38;;;;;;;;;;5024521;28;20109;-70
2022/06/23 10:39:33;;;;;;;9.47;2.27;;;;;;;;;;5025382;28;20503;-71
2022/06/23 10:42:10;;;;;;;7.50;1.85;;;;;;;;;;5025423;28;20030;-71
2022/06/23 10:44:39;;;;;;;9.40;2.22;;;;;;;;;;5025668;28;20034;-69
2022/06/23 10:47:26;;;;;;;11.73;2.13;;;;;;;;;;5023198;28;20087;-69
2022/06/23 10:50:10;;;;;;;7.32;1.75;;;;;;;;;;5025674;28;20047;-70
2022/06/23 10:52:45;;;;;;;13.40;2.95;;;;;;;;;;5025496;28;20033;-70
2022/06/23 10:55:29;;;;;;;6.03;2.08;;;;;;;;;;5025700;28;20037;-71
2022/06/23 10:58:18;;;;;;;8.55;1.92;;;;;;;;;;5024349;28;20048;-69
2022/06/23 11:01:01;;;;;;;6.45;1.80;;;;;;;;;;5024246;28;20167;-70
2022/06/23 11:03:57;;;;;;;7.80;1.95;;;;;;;;;;5024870;28;20099;-70
2022/06/23 11:06:43;;;;;;;8.43;1.80;;;;;;;;;;5026179;28;20045;-69
2022/06/23 11:09:14;;;;;;;7.88;2.08;;;;;;;;;;5024571;28;20091;-70
2022/06/23 11:11:40;;;;;;;11.00;2.38;;;;;;;;;;5026061;28;20045;-70
2022/06/23 11:14:27;;;;;;;11.38;2.15;;;;;;;;;;5026569;28;20036;-69
2022/06/23 11:17:19;;;;;;;7.47;2.15;;;;;;;;;;5025504;28;20040;-71
2022/06/23 11:19:53;;;;;;;12.27;2.47;;;;;;;;;;5023333;28;20152;-69
2022/06/23 11:22:22;;;;;;;7.22;2.08;;;;;;;;;;5023659;28;20034;-69
2022/06/23 11:24:55;;;;;;;13.82;2.17;;;;;;;;;;5025121;28;20026;-68
2022/06/23 11:27:33;;;;;;;10.80;2.53;;;;;;;;;;5024445;28;20442;-70
2022/06/23 11:30:04;;;;;;;10.32;2.38;;;;;;;;;;5023501;28;20563;-70
2022/06/23 11:33:14;;;;;;;5.60;2.00;;;;;;;;;;5014707;28;20102;-71
2022/06/23 11:36:07;;;;;;;12.48;2.42;;;;;;;;;;4994704;28;20624;-68
2022/06/23 11:38:51;;;;;;;7.00;2.08;;;;;;;;;;5013505;28;20421;-68
2022/06/23 11:41:38;;;;;;;6.55;1.98;;;;;;;;;;5020840;28;20926;-68
2022/06/23 11:44:13;;;;;;;8.57;2.55;;;;;;;;;;5022846;28;20040;-70
2022/06/23 11:47:03;;;;;;;9.55;2.10;;;;;;;;;;5023601;28;20045;-69
2022/06/23 11:49:48;;;;;;;8.10;1.70;;;;;;;;;;5023309;28;20033;-68
2022/06/23 11:52:17;;;;;;;7.20;1.92;;;;;;;;;;5022521;28;20071;-71
2022/06/23 11:55:00;;;;;;;9.25;2.08;;;;;;;;;;5024100;28;20046;-70
2022/06/23 11:57:36;;;;;;;12.27;2.30;;;;;;;;;;5023170;28;20037;-70
2022/06/23 12:00:24;;;;;;;9.95;2.35;;;;;;;;;;5022516;28;20045;-70
2022/06/23 12:02:53;;;;;;;10.15;2.03;;;;;;;;;;5036450;28;20041;-71
2022/06/23 12:05:31;;;;;;;12.00;1.80;;;;;;;;;;5021693;28;20574;-75
2022/06/23 12:08:48;;;;;;;8.48;2.38;;;;;;;;;;5020786;28;20052;-72
2022/06/23 12:11:13;;;;;;;13.85;2.60;;;;;;;;;;4991844;28;20048;-74
2022/06/23 12:13:39;;;;;;;9.23;1.98;;;;;;;;;;5020850;28;20041;-70
2022/06/23 12:16:05;;;;;;;12.52;2.08;;;;;;;;;;5021229;28;20072;-69
2022/06/23 12:18:36;;;;;;;13.32;2.53;;;;;;;;;;5021400;28;20065;-71
2022/06/23 12:21:21;;;;;;;;;;;;;;;;;;5021305;28;20045;-70
2022/06/23 12:23:56;;;;;;;17.05;2.53;;;;;;;;;;5019830;28;19917;-74
2022/06/23 12:26:30;;;;;;;7.20;2.20;;;;;;;;;;5021390;28;20124;-71
2022/06/23 12:29:21;;;;;;;12.30;2.38;;;;;;;;;;5021956;28;20128;-72
2022/06/23 12:32:02;;;;;;;7.82;2.30;;;;;;;;;;5022981;28;20092;-71
2022/06/23 12:34:35;;;;;;;10.45;2.25;;;;;;;;;;5023273;28;20512;-68
2022/06/23 12:37:33;;;;;;;9.90;2.42;;;;;;;;;;5022637;28;20095;-70
2022/06/23 12:40:14;;;;;;;10.55;2.20;;;;;;;;;;5024180;28;20037;-71
2022/06/23 12:42:45;;;;;;;8.45;2.72;;;;;;;;;;5023544;28;20136;-69
2022/06/23 12:45:47;;;;;;;11.50;2.70;;;;;;;;;;5021761;28;20033;-70
2022/06/23 12:48:40;;;;;;;14.32;3.00;;;;;;;;;;5019250;28;20060;-68
2022/06/23 12:51:37;;;;;;;8.85;3.25;;;;;;;;;;5020857;28;20040;-69
2022/06/23 12:54:11;;;;;;;11.70;2.60;;;;;;;;;;5025484;28;21073;-71
2022/06/23 12:57:06;;;;;;;11.98;2.75;;;;;;;;;;5025130;28;20187;-68
2022/06/23 12:59:58;;;;;;;7.43;2.50;;;;;;;;;;5024655;28;20041;-68
2022/06/23 13:02:37;;;;;;;12.57;2.53;;;;;;;;;;5024566;28;20052;-68
2022/06/23 13:05:05;;;;;;;6.80;2.25;;;;;;;;;;5026471;28;20041;-68
2022/06/23 13:07:37;;;;;;;8.98;2.58;;;;;;;;;;5027021;28;20033;-72
2022/06/23 13:10:15;;;;;;;12.68;3.03;;;;;;;;;;5026256;28;20512;-68
2022/06/23 13:13:09;;;;;;;9.73;2.75;;;;;;;;;;5026501;28;20037;-72
2022/06/23 13:15:46;;;;;;;12.70;3.35;;;;;;;;;;5023598;28;20042;-69
2022/06/23 13:18:31;;;;;;;14.93;3.25;;;;;;;;;;5025143;28;20047;-68
2022/06/23 13:21:36;;;;;;;8.80;2.63;;;;;;;;;;5022767;28;20618;-76
2022/06/23 13:24:08;;;;;;;12.95;3.15;;;;;;;;;;4983159;28;20042;-73
2022/06/23 13:26:33;;;;;;;9.45;2.85;;;;;;;;;;4983114;28;20042;-68
2022/06/23 13:29:04;;;;;;;7.78;2.63;;;;;;;;;;5005443;28;20049;-69
2022/06/23 13:31:55;;;;;;;11.65;2.65;;;;;;;;;;5026305;28;20037;-68
2022/06/23 13:35:16;;;;;;;10.93;2.33;;;;;;;;;;5026562;28;20041;-69
2022/06/23 13:37:51;;;;;;;8.52;2.53;;;;;;;;;;4971502;28;20055;-69
2022/06/23 13:40:42;;;;;;;8.20;2.58;;;;;;;;;;5027676;28;20033;-71
2022/06/23 13:43:30;;;;;;;16.55;3.10;;;;;;;;;;5026221;28;20036;-71
2022/06/23 13:46:20;;;;;;;9.10;2.25;;;;;;;;;;5026456;28;20156;-68
2022/06/23 13:48:59;;;;;;;9.20;2.63;;;;;;;;;;5026287;28;20478;-69
2022/06/23 13:51:43;;;;;;;11.85;2.13;;;;;;;;;;5026677;28;20033;-70
2022/06/23 13:54:35;;;;;;;10.13;2.45;;;;;;;;;;5025983;28;20099;-69
2022/06/23 13:57:21;;;;;;;13.25;2.50;;;;;;;;;;5026459;28;20045;-69
2022/06/23 14:00:16;;;;;;;12.93;2.92;;;;;;;;;;5025280;28;20124;-70
2022/06/23 14:03:10;;;;;;;5.53;2.10;;;;;;;;;;5026965;28;20041;-70
2022/06/23 14:06:02;;;;;;;15.48;2.83;;;;;;;;;;5025134;28;20056;-69
2022/06/23 14:08:43;;;;;;;7.75;2.28;;;;;;;;;;5026748;28;20029;-72
2022/06/23 14:11:24;;;;;;;10.10;2.17;;;;;;;;;;5026714;28;20040;-69
2022/06/23 14:14:13;;;;;;;12.52;2.88;;;;;;;;;;5025728;28;20111;-72
2022/06/23 14:16:54;;;;;;;12.57;3.38;;;;;;;;;;5026749;28;20038;-69
2022/06/23 14:19:41;;;;;;;18.65;3.83;;;;;;;;;;5027102;28;20140;-69
2022/06/23 14:22:22;;;;;;;13.07;2.50;;;;;;;;;;5026801;28;20474;-72
2022/06/23 14:25:01;;;;;;;8.68;2.50;;;;;;;;;;5026725;28;20561;-69
2022/06/23 14:27:58;;;;;;;11.55;2.72;;;;;;;;;;5025585;28;20037;-68
2022/06/23 14:30:32;;;;;;;9.30;3.13;;;;;;;;;;5001955;28;20056;-69
2022/06/23 14:33:41;;;;;;;16.55;2.55;;;;;;;;;;5025514;28;20116;-68
2022/06/23 14:36:21;;;;;;;11.35;3.03;;;;;;;;;;5011383;28;20561;-72
2022/06/23 14:38:57;;;;;;;11.73;2.40;;;;;;;;;;5025564;28;20044;-70
2022/06/23 14:41:31;;;;;;;11.95;2.70;;;;;;;;;;5017441;28;20065;-69
2022/06/23 14:44:13;;;;;;;10.50;2.97;;;;;;;;;;5026225;28;20507;-68
2022/06/23 14:46:54;;;;;;;14.48;2.92;;;;;;;;;;5026307;28;20156;-68
2022/06/23 14:49:45;;;;;;;18.10;2.80;;;;;;;;;;5025755;28;20048;-70
2022/06/23 14:52:36;;;;;;;11.82;2.80;;;;;;;;;;5024033;28;20108;-68
2022/06/23 14:55:07;;;;;;;8.95;2.22;;;;;;;;;;5027096;28;20034;-69
2022/06/23 14:57:44;;;;;;;12.32;2.30;;;;;;;;;;5026877;28;20034;-68
2022/06/23 15:00:31;;;;;;;12.63;2.53;;;;;;;;;;5025021;28;20061;-70
2022/06/23 15:03:44;;;;;;;11.43;2.30;;;;;;;;;;5025658;28;20036;-69
2022/06/23 15:06:19;;;;;;;11.75;2.33;;;;;;;;;;5007666;28;20102;-69
2022/06/23 15:08:47;;;;;;;17.60;3.47;;;;;;;;;;5024339;28;20080;-68
2022/06/23 15:11:24;;;;;;;9.48;2.60;;;;;;;;;;5024732;28;20030;-68
2022/06/23 15:14:12;;;;;;;11.80;2.47;;;;;;;;;;5024900;28;20571;-70
2022/06/23 15:16:45;;;;;;;10.52;2.50;;;;;;;;;;5023185;28;20516;-70
2022/06/23 15:19:31;;;;;;;7.97;2.47;;;;;;;;;;5024436;28;20039;-69
2022/06/23 15:25:13;;;;;;;14.02;2.85;;;;;;;;;;5002643;28;20058;-69
2022/06/23 15:27:41;;;;;;;9.95;2.60;;;;;;;;;;5021327;28;20482;-69
2022/06/23 15:30:12;;;;;;;13.30;3.15;;;;;;;;;;5022865;28;20033;-68
2022/06/23 15:33:19;;;;;;;14.02;2.70;;;;;;;;;;5021489;28;20043;-70
2022/06/23 15:35:52;;;;;;;8.55;2.53;;;;;;;;;;5015732;28;20049;-67
2022/06/23 15:38:52;;;;;;;12.70;2.60;;;;;;;;;;5022687;28;20482;-67
2022/06/23 15:41:23;;;;;;;10.00;2.35;;;;;;;;;;5021676;28;20041;-68
2022/06/23 15:44:06;;;;;;;17.30;2.95;;;;;;;;;;5022592;28;20040;-69
2022/06/23 15:46:54;;;;;;;11.35;2.67;;;;;;;;;;5023038;28;20037;-68
2022/06/23 15:49:31;;;;;;;12.55;2.50;;;;;;;;;;5022600;28;20071;-69
2022/06/23 15:52:11;;;;;;;12.30;2.95;;;;;;;;;;5022232;28;20096;-68
2022/06/23 15:54:46;;;;;;;12.63;2.67;;;;;;;;;;5020299;28;20099;-68
2022/06/23 15:57:33;;;;;;;12.55;2.60;;;;;;;;;;5021182;28;20030;-72
2022/06/23 16:00:07;;;;;;;7.30;2.60;;;;;;;;;;5020621;28;20037;-69